sensor_id;sensor_type;location;lat;lon;timestamp;P1;durP1;ratioP1;P2;durP2;ratioP2
8337;SDS011;4206;48.634;9.516;2023-08-01T00:02:15;3.60;;;2.30;;
8337;SDS011;4206;48.634;9.516;2023-08-01T00:04:42;3.77;;;2.87;;
8337;SDS011;4206;48.634;9.516;2023-08-01T00:07:09;5.43;;;2.73;;
8337;SDS011;4206;48.634;9.516;2023-08-01T00:09:36;5.40;;;2.80;;
8337;SDS011;4206;48.634;9.516;2023-08-01T00:12:03;4.13;;;2.87;;
8337;SDS011;4206;48.634;9.516;2023-08-01T00:14:30;3.93;;;2.47;;
8337;SDS011;4206;48.634;9.516;2023-08-01T00:16:57;4.90;;;2.50;;
8337;SDS011;4206;48.634;9.516;2023-08-01T00:19:24;5.40;;;2.63;;
8337;SDS011;4206;48.634;9.516;2023-08-01T00:21:51;3.70;;;2.67;;
8337;SDS011;4206;48.634;9.516;2023-08-01T00:24:18;3.43;;;2.80;;
8337;SDS011;4206;48.634;9.516;2023-08-01T00:26:44;3.77;;;2.57;;
8337;SDS011;4206;48.634;9.516;2023-08-01T00:29:11;2.80;;;2.00;;
8337;SDS011;4206;48.634;9.516;2023-08-01T00:31:38;2.50;;;2.20;;
8337;SDS011;4206;48.634;9.516;2023-08-01T00:34:05;3.03;;;2.13;;
8337;SDS011;4206;48.634;9.516;2023-08-01T00:36:32;7.20;;;2.70;;
8337;SDS011;4206;48.634;9.516;2023-08-01T00:38:59;4.13;;;2.70;;
8337;SDS011;4206;48.634;9.516;2023-08-01T00:41:26;5.37;;;3.00;;
8337;SDS011;4206;48.634;9.516;2023-08-01T00:43:53;3.43;;;2.57;;
8337;SDS011;4206;48.634;9.516;2023-08-01T00:46:20;4.30;;;2.80;;
8337;SDS011;4206;48.634;9.516;2023-08-01T00:48:47;3.97;;;2.30;;
8337;SDS011;4206;48.634;9.516;2023-08-01T00:51:14;4.50;;;2.53;;
8337;SDS011;4206;48.634;9.516;2023-08-01T00:53:44;3.70;;;2.73;;
8337;SDS011;4206;48.634;9.516;2023-08-01T00:56:12;4.37;;;2.77;;
8337;SDS011;4206;48.634;9.516;2023-08-01T00:58:40;3.80;;;2.83;;
8337;SDS011;4206;48.634;9.516;2023-08-01T01:01:07;2.23;;;1.93;;
8337;SDS011;4206;48.634;9.516;2023-08-01T01:03:34;4.00;;;3.00;;
8337;SDS011;4206;48.634;9.516;2023-08-01T01:06:06;5.13;;;2.70;;
8337;SDS011;4206;48.634;9.516;2023-08-01T01:08:42;4.57;;;2.67;;
8337;SDS011;4206;48.634;9.516;2023-08-01T01:11:09;4.57;;;2.60;;
8337;SDS011;4206;48.634;9.516;2023-08-01T01:13:36;5.23;;;3.07;;
8337;SDS011;4206;48.634;9.516;2023-08-01T01:16:03;4.73;;;2.77;;
8337;SDS011;4206;48.634;9.516;2023-08-01T01:18:30;6.10;;;3.17;;
8337;SDS011;4206;48.634;9.516;2023-08-01T01:20:57;3.13;;;2.83;;
8337;SDS011;4206;48.634;9.516;2023-08-01T01:23:24;3.73;;;2.60;;
8337;SDS011;4206;48.634;9.516;2023-08-01T01:25:53;3.60;;;2.97;;
8337;SDS011;4206;48.634;9.516;2023-08-01T01:28:22;5.03;;;2.57;;
8337;SDS011;4206;48.634;9.516;2023-08-01T01:30:49;3.07;;;2.43;;
8337;SDS011;4206;48.634;9.516;2023-08-01T01:33:19;4.93;;;3.33;;
8337;SDS011;4206;48.634;9.516;2023-08-01T01:35:46;3.70;;;2.50;;
8337;SDS011;4206;48.634;9.516;2023-08-01T01:38:14;4.70;;;2.70;;
8337;SDS011;4206;48.634;9.516;2023-08-01T01:40:41;4.67;;;2.70;;
8337;SDS011;4206;48.634;9.516;2023-08-01T01:43:08;5.13;;;2.57;;
8337;SDS011;4206;48.634;9.516;2023-08-01T01:45:35;4.83;;;2.20;;
8337;SDS011;4206;48.634;9.516;2023-08-01T01:48:02;4.13;;;2.70;;
8337;SDS011;4206;48.634;9.516;2023-08-01T01:50:28;5.63;;;2.80;;
8337;SDS011;4206;48.634;9.516;2023-08-01T01:52:55;2.93;;;1.90;;
8337;SDS011;4206;48.634;9.516;2023-08-01T01:55:22;4.80;;;2.70;;
8337;SDS011;4206;48.634;9.516;2023-08-01T01:57:49;5.00;;;2.70;;
8337;SDS011;4206;48.634;9.516;2023-08-01T02:00:16;3.30;;;2.67;;
8337;SDS011;4206;48.634;9.516;2023-08-01T02:02:43;4.63;;;2.33;;
8337;SDS011;4206;48.634;9.516;2023-08-01T02:05:10;9.07;;;3.40;;
8337;SDS011;4206;48.634;9.516;2023-08-01T02:07:37;5.60;;;2.80;;
8337;SDS011;4206;48.634;9.516;2023-08-01T02:10:04;4.30;;;2.20;;
8337;SDS011;4206;48.634;9.516;2023-08-01T02:12:31;8.23;;;2.60;;
8337;SDS011;4206;48.634;9.516;2023-08-01T02:14:58;5.00;;;2.80;;
8337;SDS011;4206;48.634;9.516;2023-08-01T02:17:25;4.47;;;2.70;;
8337;SDS011;4206;48.634;9.516;2023-08-01T02:19:52;4.03;;;2.70;;
8337;SDS011;4206;48.634;9.516;2023-08-01T02:22:19;9.60;;;2.93;;
8337;SDS011;4206;48.634;9.516;2023-08-01T02:24:46;3.93;;;2.40;;
8337;SDS011;4206;48.634;9.516;2023-08-01T02:27:13;6.47;;;3.13;;
8337;SDS011;4206;48.634;9.516;2023-08-01T02:29:40;4.50;;;2.50;;
8337;SDS011;4206;48.634;9.516;2023-08-01T02:32:07;9.17;;;2.60;;
8337;SDS011;4206;48.634;9.516;2023-08-01T02:34:34;3.43;;;2.80;;
8337;SDS011;4206;48.634;9.516;2023-08-01T02:37:01;3.80;;;2.20;;
8337;SDS011;4206;48.634;9.516;2023-08-01T02:39:28;7.00;;;2.70;;
8337;SDS011;4206;48.634;9.516;2023-08-01T02:41:54;5.83;;;2.50;;
8337;SDS011;4206;48.634;9.516;2023-08-01T02:44:21;10.30;;;2.50;;
8337;SDS011;4206;48.634;9.516;2023-08-01T02:46:48;3.80;;;2.20;;
8337;SDS011;4206;48.634;9.516;2023-08-01T02:49:15;3.67;;;2.37;;
8337;SDS011;4206;48.634;9.516;2023-08-01T02:51:42;5.67;;;2.63;;
8337;SDS011;4206;48.634;9.516;2023-08-01T02:54:09;2.80;;;2.30;;
8337;SDS011;4206;48.634;9.516;2023-08-01T02:56:36;4.13;;;2.13;;
8337;SDS011;4206;48.634;9.516;2023-08-01T02:59:07;4.93;;;2.80;;
8337;SDS011;4206;48.634;9.516;2023-08-01T03:01:35;5.80;;;2.80;;
8337;SDS011;4206;48.634;9.516;2023-08-01T03:04:04;7.00;;;2.37;;
8337;SDS011;4206;48.634;9.516;2023-08-01T03:06:32;4.87;;;2.60;;
8337;SDS011;4206;48.634;9.516;2023-08-01T03:09:00;3.50;;;2.03;;
8337;SDS011;4206;48.634;9.516;2023-08-01T03:11:27;3.80;;;2.40;;
8337;SDS011;4206;48.634;9.516;2023-08-01T03:13:54;3.10;;;2.37;;
8337;SDS011;4206;48.634;9.516;2023-08-01T03:16:21;6.37;;;2.90;;
8337;SDS011;4206;48.634;9.516;2023-08-01T03:18:48;4.07;;;2.83;;
8337;SDS011;4206;48.634;9.516;2023-08-01T03:21:15;3.50;;;2.57;;
8337;SDS011;4206;48.634;9.516;2023-08-01T03:23:42;3.07;;;2.50;;
8337;SDS011;4206;48.634;9.516;2023-08-01T03:26:09;3.40;;;1.83;;
8337;SDS011;4206;48.634;9.516;2023-08-01T03:28:36;8.07;;;2.70;;
8337;SDS011;4206;48.634;9.516;2023-08-01T03:31:03;4.13;;;2.80;;
8337;SDS011;4206;48.634;9.516;2023-08-01T03:33:30;2.93;;;2.13;;
8337;SDS011;4206;48.634;9.516;2023-08-01T03:35:59;15.10;;;3.13;;
8337;SDS011;4206;48.634;9.516;2023-08-01T03:38:26;4.00;;;2.40;;
8337;SDS011;4206;48.634;9.516;2023-08-01T03:40:53;3.30;;;2.40;;
8337;SDS011;4206;48.634;9.516;2023-08-01T03:43:20;3.10;;;1.97;;
8337;SDS011;4206;48.634;9.516;2023-08-01T03:45:51;4.20;;;2.50;;
8337;SDS011;4206;48.634;9.516;2023-08-01T03:48:18;6.20;;;2.67;;
8337;SDS011;4206;48.634;9.516;2023-08-01T03:50:45;5.13;;;2.60;;
8337;SDS011;4206;48.634;9.516;2023-08-01T03:53:11;6.60;;;2.57;;
8337;SDS011;4206;48.634;9.516;2023-08-01T03:55:41;2.80;;;2.30;;
8337;SDS011;4206;48.634;9.516;2023-08-01T03:58:10;5.93;;;2.67;;
8337;SDS011;4206;48.634;9.516;2023-08-01T04:00:37;3.93;;;2.80;;
8337;SDS011;4206;48.634;9.516;2023-08-01T04:03:04;5.30;;;2.03;;
8337;SDS011;4206;48.634;9.516;2023-08-01T04:05:31;6.33;;;2.43;;
8337;SDS011;4206;48.634;9.516;2023-08-01T04:07:58;7.10;;;3.10;;
8337;SDS011;4206;48.634;9.516;2023-08-01T04:10:25;4.33;;;2.50;;
8337;SDS011;4206;48.634;9.516;2023-08-01T04:12:52;4.37;;;2.73;;
8337;SDS011;4206;48.634;9.516;2023-08-01T04:15:19;7.00;;;2.57;;
8337;SDS011;4206;48.634;9.516;2023-08-01T04:17:46;3.20;;;2.20;;
8337;SDS011;4206;48.634;9.516;2023-08-01T04:20:14;4.77;;;2.60;;
8337;SDS011;4206;48.634;9.516;2023-08-01T04:22:41;4.53;;;2.43;;
8337;SDS011;4206;48.634;9.516;2023-08-01T04:25:08;5.23;;;2.90;;
8337;SDS011;4206;48.634;9.516;2023-08-01T04:27:34;5.10;;;2.43;;
8337;SDS011;4206;48.634;9.516;2023-08-01T04:30:01;6.93;;;2.57;;
8337;SDS011;4206;48.634;9.516;2023-08-01T04:32:28;5.43;;;2.53;;
8337;SDS011;4206;48.634;9.516;2023-08-01T04:34:55;3.30;;;2.67;;
8337;SDS011;4206;48.634;9.516;2023-08-01T04:37:22;3.90;;;2.90;;
8337;SDS011;4206;48.634;9.516;2023-08-01T04:39:49;4.70;;;2.10;;
8337;SDS011;4206;48.634;9.516;2023-08-01T04:42:16;5.70;;;2.50;;
8337;SDS011;4206;48.634;9.516;2023-08-01T04:44:43;4.70;;;2.13;;
8337;SDS011;4206;48.634;9.516;2023-08-01T04:47:10;4.27;;;2.20;;
8337;SDS011;4206;48.634;9.516;2023-08-01T04:49:37;6.60;;;2.50;;
8337;SDS011;4206;48.634;9.516;2023-08-01T04:52:04;5.80;;;2.57;;
8337;SDS011;4206;48.634;9.516;2023-08-01T04:54:33;2.97;;;2.00;;
8337;SDS011;4206;48.634;9.516;2023-08-01T04:57:00;5.30;;;2.43;;
8337;SDS011;4206;48.634;9.516;2023-08-01T04:59:27;4.20;;;2.33;;
8337;SDS011;4206;48.634;9.516;2023-08-01T05:01:54;4.67;;;2.43;;
8337;SDS011;4206;48.634;9.516;2023-08-01T05:04:21;5.20;;;2.30;;
8337;SDS011;4206;48.634;9.516;2023-08-01T05:06:48;8.03;;;2.77;;
8337;SDS011;4206;48.634;9.516;2023-08-01T05:09:15;4.83;;;2.27;;
8337;SDS011;4206;48.634;9.516;2023-08-01T05:11:42;4.53;;;1.90;;
8337;SDS011;4206;48.634;9.516;2023-08-01T05:14:09;5.13;;;2.40;;
8337;SDS011;4206;48.634;9.516;2023-08-01T05:16:35;5.60;;;3.27;;
8337;SDS011;4206;48.634;9.516;2023-08-01T05:19:02;3.30;;;2.50;;
8337;SDS011;4206;48.634;9.516;2023-08-01T05:21:29;5.33;;;2.83;;
8337;SDS011;4206;48.634;9.516;2023-08-01T05:23:56;5.93;;;2.77;;
8337;SDS011;4206;48.634;9.516;2023-08-01T05:26:24;5.30;;;2.80;;
8337;SDS011;4206;48.634;9.516;2023-08-01T05:28:51;5.40;;;2.77;;
8337;SDS011;4206;48.634;9.516;2023-08-01T05:31:18;3.70;;;2.37;;
8337;SDS011;4206;48.634;9.516;2023-08-01T05:33:44;4.57;;;2.37;;
8337;SDS011;4206;48.634;9.516;2023-08-01T05:36:11;5.33;;;2.87;;
8337;SDS011;4206;48.634;9.516;2023-08-01T05:38:38;6.53;;;3.33;;
8337;SDS011;4206;48.634;9.516;2023-08-01T05:41:05;3.80;;;2.57;;
8337;SDS011;4206;48.634;9.516;2023-08-01T05:43:32;4.43;;;2.90;;
8337;SDS011;4206;48.634;9.516;2023-08-01T05:45:59;8.93;;;2.90;;
8337;SDS011;4206;48.634;9.516;2023-08-01T05:48:26;3.87;;;2.80;;
8337;SDS011;4206;48.634;9.516;2023-08-01T05:50:53;3.20;;;2.07;;
8337;SDS011;4206;48.634;9.516;2023-08-01T05:53:21;6.83;;;2.97;;
8337;SDS011;4206;48.634;9.516;2023-08-01T05:55:48;4.97;;;2.53;;
8337;SDS011;4206;48.634;9.516;2023-08-01T05:58:16;6.20;;;2.87;;
8337;SDS011;4206;48.634;9.516;2023-08-01T06:00:43;4.90;;;2.50;;
8337;SDS011;4206;48.634;9.516;2023-08-01T06:03:10;4.50;;;2.47;;
8337;SDS011;4206;48.634;9.516;2023-08-01T06:05:37;7.37;;;3.30;;
8337;SDS011;4206;48.634;9.516;2023-08-01T06:08:06;4.00;;;2.70;;
8337;SDS011;4206;48.634;9.516;2023-08-01T06:10:34;5.80;;;2.23;;
8337;SDS011;4206;48.634;9.516;2023-08-01T06:13:01;5.90;;;2.83;;
8337;SDS011;4206;48.634;9.516;2023-08-01T06:15:28;2.43;;;1.93;;
8337;SDS011;4206;48.634;9.516;2023-08-01T06:17:55;3.87;;;2.40;;
8337;SDS011;4206;48.634;9.516;2023-08-01T06:20:22;3.43;;;2.43;;
8337;SDS011;4206;48.634;9.516;2023-08-01T06:22:49;3.03;;;2.50;;
8337;SDS011;4206;48.634;9.516;2023-08-01T06:25:15;9.97;;;2.57;;
8337;SDS011;4206;48.634;9.516;2023-08-01T06:27:43;3.10;;;1.83;;
8337;SDS011;4206;48.634;9.516;2023-08-01T06:30:10;4.23;;;2.73;;
8337;SDS011;4206;48.634;9.516;2023-08-01T06:32:37;7.97;;;2.17;;
8337;SDS011;4206;48.634;9.516;2023-08-01T06:35:04;4.10;;;2.10;;
8337;SDS011;4206;48.634;9.516;2023-08-01T06:37:31;3.20;;;2.20;;
8337;SDS011;4206;48.634;9.516;2023-08-01T06:39:58;4.80;;;3.00;;
8337;SDS011;4206;48.634;9.516;2023-08-01T06:42:25;5.90;;;2.90;;
8337;SDS011;4206;48.634;9.516;2023-08-01T06:44:52;3.53;;;2.40;;
8337;SDS011;4206;48.634;9.516;2023-08-01T06:47:19;4.70;;;2.93;;
8337;SDS011;4206;48.634;9.516;2023-08-01T06:49:46;7.00;;;2.87;;
8337;SDS011;4206;48.634;9.516;2023-08-01T06:52:13;3.50;;;2.23;;
8337;SDS011;4206;48.634;9.516;2023-08-01T06:54:40;5.40;;;2.60;;
8337;SDS011;4206;48.634;9.516;2023-08-01T06:57:07;7.70;;;3.50;;
8337;SDS011;4206;48.634;9.516;2023-08-01T06:59:34;5.97;;;3.30;;
8337;SDS011;4206;48.634;9.516;2023-08-01T07:02:01;6.20;;;2.97;;
8337;SDS011;4206;48.634;9.516;2023-08-01T07:04:28;4.40;;;3.30;;
8337;SDS011;4206;48.634;9.516;2023-08-01T07:06:55;6.57;;;3.80;;
8337;SDS011;4206;48.634;9.516;2023-08-01T07:09:21;6.03;;;3.90;;
8337;SDS011;4206;48.634;9.516;2023-08-01T07:11:48;6.67;;;3.50;;
8337;SDS011;4206;48.634;9.516;2023-08-01T07:14:15;4.90;;;3.50;;
8337;SDS011;4206;48.634;9.516;2023-08-01T07:16:42;5.93;;;3.63;;
8337;SDS011;4206;48.634;9.516;2023-08-01T07:19:09;6.13;;;4.10;;
8337;SDS011;4206;48.634;9.516;2023-08-01T07:21:36;5.83;;;3.80;;
8337;SDS011;4206;48.634;9.516;2023-08-01T07:24:03;7.13;;;4.00;;
8337;SDS011;4206;48.634;9.516;2023-08-01T07:26:30;6.00;;;3.80;;
8337;SDS011;4206;48.634;9.516;2023-08-01T07:28:57;4.60;;;3.70;;
8337;SDS011;4206;48.634;9.516;2023-08-01T07:31:24;6.43;;;3.10;;
8337;SDS011;4206;48.634;9.516;2023-08-01T07:33:51;6.83;;;3.77;;
8337;SDS011;4206;48.634;9.516;2023-08-01T07:36:18;7.17;;;3.50;;
8337;SDS011;4206;48.634;9.516;2023-08-01T07:38:45;6.17;;;3.00;;
8337;SDS011;4206;48.634;9.516;2023-08-01T07:41:12;4.87;;;3.03;;
8337;SDS011;4206;48.634;9.516;2023-08-01T07:43:39;7.00;;;3.47;;
8337;SDS011;4206;48.634;9.516;2023-08-01T07:46:06;6.07;;;3.17;;
8337;SDS011;4206;48.634;9.516;2023-08-01T07:48:35;4.40;;;3.00;;
8337;SDS011;4206;48.634;9.516;2023-08-01T07:51:02;8.00;;;3.07;;
8337;SDS011;4206;48.634;9.516;2023-08-01T07:53:31;7.30;;;2.97;;
8337;SDS011;4206;48.634;9.516;2023-08-01T07:55:58;4.40;;;2.60;;
8337;SDS011;4206;48.634;9.516;2023-08-01T07:58:25;3.80;;;3.00;;
8337;SDS011;4206;48.634;9.516;2023-08-01T08:00:52;5.20;;;2.97;;
8337;SDS011;4206;48.634;9.516;2023-08-01T08:03:19;4.77;;;3.37;;
8337;SDS011;4206;48.634;9.516;2023-08-01T08:05:49;6.20;;;3.23;;
8337;SDS011;4206;48.634;9.516;2023-08-01T08:08:16;5.60;;;2.97;;
8337;SDS011;4206;48.634;9.516;2023-08-01T08:10:43;4.60;;;2.83;;
8337;SDS011;4206;48.634;9.516;2023-08-01T08:13:10;8.80;;;3.40;;
8337;SDS011;4206;48.634;9.516;2023-08-01T08:15:37;6.03;;;2.57;;
8337;SDS011;4206;48.634;9.516;2023-08-01T08:18:04;5.50;;;3.43;;
8337;SDS011;4206;48.634;9.516;2023-08-01T08:20:31;5.30;;;3.10;;
8337;SDS011;4206;48.634;9.516;2023-08-01T08:23:06;4.33;;;2.70;;
8337;SDS011;4206;48.634;9.516;2023-08-01T08:25:33;5.70;;;3.60;;
8337;SDS011;4206;48.634;9.516;2023-08-01T08:28:00;8.23;;;3.97;;
8337;SDS011;4206;48.634;9.516;2023-08-01T08:30:26;7.73;;;4.30;;
8337;SDS011;4206;48.634;9.516;2023-08-01T08:32:53;12.60;;;3.33;;
8337;SDS011;4206;48.634;9.516;2023-08-01T08:35:20;6.20;;;3.60;;
8337;SDS011;4206;48.634;9.516;2023-08-01T08:37:47;7.13;;;3.70;;
8337;SDS011;4206;48.634;9.516;2023-08-01T08:40:14;6.87;;;3.27;;
8337;SDS011;4206;48.634;9.516;2023-08-01T08:42:41;6.03;;;3.70;;
8337;SDS011;4206;48.634;9.516;2023-08-01T08:45:11;6.57;;;3.83;;
8337;SDS011;4206;48.634;9.516;2023-08-01T08:47:43;5.40;;;3.60;;
8337;SDS011;4206;48.634;9.516;2023-08-01T08:50:15;7.00;;;3.93;;
8337;SDS011;4206;48.634;9.516;2023-08-01T08:52:42;6.00;;;3.23;;
8337;SDS011;4206;48.634;9.516;2023-08-01T08:55:11;6.37;;;3.60;;
8337;SDS011;4206;48.634;9.516;2023-08-01T08:57:38;8.10;;;3.93;;
8337;SDS011;4206;48.634;9.516;2023-08-01T09:00:06;13.60;;;4.33;;
8337;SDS011;4206;48.634;9.516;2023-08-01T09:02:34;9.33;;;4.07;;
8337;SDS011;4206;48.634;9.516;2023-08-01T09:05:01;5.53;;;3.50;;
8337;SDS011;4206;48.634;9.516;2023-08-01T09:07:29;5.87;;;3.40;;
8337;SDS011;4206;48.634;9.516;2023-08-01T09:10:00;3.73;;;3.07;;
8337;SDS011;4206;48.634;9.516;2023-08-01T09:12:27;5.70;;;2.77;;
8337;SDS011;4206;48.634;9.516;2023-08-01T09:14:55;3.43;;;2.40;;
8337;SDS011;4206;48.634;9.516;2023-08-01T09:17:25;5.87;;;2.80;;
8337;SDS011;4206;48.634;9.516;2023-08-01T09:25:16;4.40;;;2.00;;
8337;SDS011;4206;48.634;9.516;2023-08-01T09:27:43;5.53;;;2.13;;
8337;SDS011;4206;48.634;9.516;2023-08-01T09:30:11;2.90;;;2.17;;
8337;SDS011;4206;48.634;9.516;2023-08-01T09:35:24;1.37;;;1.00;;
8337;SDS011;4206;48.634;9.516;2023-08-01T09:37:51;4.63;;;1.77;;
8337;SDS011;4206;48.634;9.516;2023-08-01T09:40:18;2.20;;;1.40;;
8337;SDS011;4206;48.634;9.516;2023-08-01T09:42:46;1.87;;;1.30;;
8337;SDS011;4206;48.634;9.516;2023-08-01T09:45:14;1.73;;;1.60;;
8337;SDS011;4206;48.634;9.516;2023-08-01T09:47:42;1.50;;;1.03;;
8337;SDS011;4206;48.634;9.516;2023-08-01T09:50:19;1.53;;;1.33;;
8337;SDS011;4206;48.634;9.516;2023-08-01T09:52:47;0.83;;;0.70;;
8337;SDS011;4206;48.634;9.516;2023-08-01T09:55:20;2.70;;;0.93;;
8337;SDS011;4206;48.634;9.516;2023-08-01T09:57:54;0.80;;;0.70;;
8337;SDS011;4206;48.634;9.516;2023-08-01T10:00:26;3.13;;;1.50;;
8337;SDS011;4206;48.634;9.516;2023-08-01T10:02:54;1.53;;;1.00;;
8337;SDS011;4206;48.634;9.516;2023-08-01T10:05:29;6.17;;;1.00;;
8337;SDS011;4206;48.634;9.516;2023-08-01T10:07:59;3.13;;;1.40;;
8337;SDS011;4206;48.634;9.516;2023-08-01T10:10:27;2.40;;;1.03;;
8337;SDS011;4206;48.634;9.516;2023-08-01T10:12:56;2.80;;;1.30;;
8337;SDS011;4206;48.634;9.516;2023-08-01T10:15:24;1.40;;;1.23;;
8337;SDS011;4206;48.634;9.516;2023-08-01T10:17:52;1.40;;;1.30;;
8337;SDS011;4206;48.634;9.516;2023-08-01T10:20:20;2.60;;;1.30;;
8337;SDS011;4206;48.634;9.516;2023-08-01T10:22:49;1.27;;;0.93;;
8337;SDS011;4206;48.634;9.516;2023-08-01T10:25:17;2.80;;;1.70;;
8337;SDS011;4206;48.634;9.516;2023-08-01T10:28:02;4.33;;;1.13;;
8337;SDS011;4206;48.634;9.516;2023-08-01T10:30:30;2.40;;;1.40;;
8337;SDS011;4206;48.634;9.516;2023-08-01T10:32:57;4.07;;;1.33;;
8337;SDS011;4206;48.634;9.516;2023-08-01T10:35:42;2.60;;;1.10;;
8337;SDS011;4206;48.634;9.516;2023-08-01T10:38:10;1.73;;;0.93;;
8337;SDS011;4206;48.634;9.516;2023-08-01T10:40:41;1.37;;;0.90;;
8337;SDS011;4206;48.634;9.516;2023-08-01T10:48:34;1.00;;;0.90;;
8337;SDS011;4206;48.634;9.516;2023-08-01T10:51:00;1.03;;;0.87;;
8337;SDS011;4206;48.634;9.516;2023-08-01T10:53:37;1.03;;;0.80;;
8337;SDS011;4206;48.634;9.516;2023-08-01T10:56:08;1.63;;;0.67;;
8337;SDS011;4206;48.634;9.516;2023-08-01T10:58:42;2.00;;;0.40;;
8337;SDS011;4206;48.634;9.516;2023-08-01T11:01:09;2.83;;;0.63;;
8337;SDS011;4206;48.634;9.516;2023-08-01T11:03:37;1.87;;;0.70;;
8337;SDS011;4206;48.634;9.516;2023-08-01T11:06:05;1.47;;;0.50;;
8337;SDS011;4206;48.634;9.516;2023-08-01T11:08:34;0.80;;;0.50;;
8337;SDS011;4206;48.634;9.516;2023-08-01T11:11:03;2.00;;;0.40;;
8337;SDS011;4206;48.634;9.516;2023-08-01T11:13:32;0.60;;;0.40;;
8337;SDS011;4206;48.634;9.516;2023-08-01T11:16:03;0.60;;;0.30;;
8337;SDS011;4206;48.634;9.516;2023-08-01T11:21:23;1.77;;;0.40;;
8337;SDS011;4206;48.634;9.516;2023-08-01T11:23:52;0.60;;;0.40;;
8337;SDS011;4206;48.634;9.516;2023-08-01T11:26:19;2.10;;;0.60;;
8337;SDS011;4206;48.634;9.516;2023-08-01T11:28:47;2.10;;;0.47;;
8337;SDS011;4206;48.634;9.516;2023-08-01T11:31:14;0.97;;;0.43;;
8337;SDS011;4206;48.634;9.516;2023-08-01T11:33:41;1.40;;;0.60;;
8337;SDS011;4206;48.634;9.516;2023-08-01T11:36:08;1.37;;;0.63;;
8337;SDS011;4206;48.634;9.516;2023-08-01T11:38:36;4.30;;;0.90;;
8337;SDS011;4206;48.634;9.516;2023-08-01T11:41:04;2.90;;;0.87;;
8337;SDS011;4206;48.634;9.516;2023-08-01T11:43:40;1.33;;;0.80;;
8337;SDS011;4206;48.634;9.516;2023-08-01T11:46:08;3.10;;;0.80;;
8337;SDS011;4206;48.634;9.516;2023-08-01T11:48:36;2.13;;;1.30;;
8337;SDS011;4206;48.634;9.516;2023-08-01T11:51:03;1.17;;;0.83;;
8337;SDS011;4206;48.634;9.516;2023-08-01T11:53:30;1.43;;;0.80;;
8337;SDS011;4206;48.634;9.516;2023-08-01T11:56:05;1.73;;;0.70;;
8337;SDS011;4206;48.634;9.516;2023-08-01T11:58:33;2.60;;;0.60;;
8337;SDS011;4206;48.634;9.516;2023-08-01T12:01:03;1.53;;;0.60;;
8337;SDS011;4206;48.634;9.516;2023-08-01T12:03:41;1.60;;;0.90;;
8337;SDS011;4206;48.634;9.516;2023-08-01T12:06:09;1.13;;;0.70;;
8337;SDS011;4206;48.634;9.516;2023-08-01T12:08:37;1.07;;;0.70;;
8337;SDS011;4206;48.634;9.516;2023-08-01T12:11:04;0.83;;;0.70;;
8337;SDS011;4206;48.634;9.516;2023-08-01T12:13:31;2.30;;;0.70;;
8337;SDS011;4206;48.634;9.516;2023-08-01T12:15:58;1.03;;;0.67;;
8337;SDS011;4206;48.634;9.516;2023-08-01T12:18:27;1.23;;;0.70;;
8337;SDS011;4206;48.634;9.516;2023-08-01T12:20:58;1.10;;;0.83;;
8337;SDS011;4206;48.634;9.516;2023-08-01T12:23:25;0.90;;;0.73;;
8337;SDS011;4206;48.634;9.516;2023-08-01T12:25:52;1.33;;;0.60;;
8337;SDS011;4206;48.634;9.516;2023-08-01T12:28:19;3.10;;;0.67;;
8337;SDS011;4206;48.634;9.516;2023-08-01T12:30:46;1.20;;;0.70;;
8337;SDS011;4206;48.634;9.516;2023-08-01T12:33:13;1.93;;;0.70;;
8337;SDS011;4206;48.634;9.516;2023-08-01T12:35:41;1.10;;;0.80;;
8337;SDS011;4206;48.634;9.516;2023-08-01T12:38:08;0.90;;;0.63;;
8337;SDS011;4206;48.634;9.516;2023-08-01T12:40:36;2.10;;;0.80;;
8337;SDS011;4206;48.634;9.516;2023-08-01T12:43:08;0.80;;;0.50;;
8337;SDS011;4206;48.634;9.516;2023-08-01T12:45:34;0.90;;;0.60;;
8337;SDS011;4206;48.634;9.516;2023-08-01T12:48:01;2.10;;;0.73;;
8337;SDS011;4206;48.634;9.516;2023-08-01T12:50:28;2.30;;;0.50;;
8337;SDS011;4206;48.634;9.516;2023-08-01T12:52:55;0.77;;;0.60;;
8337;SDS011;4206;48.634;9.516;2023-08-01T12:55:22;1.07;;;0.63;;
8337;SDS011;4206;48.634;9.516;2023-08-01T12:57:49;1.47;;;0.67;;
8337;SDS011;4206;48.634;9.516;2023-08-01T13:00:18;1.43;;;0.80;;
8337;SDS011;4206;48.634;9.516;2023-08-01T13:02:44;0.97;;;0.70;;
8337;SDS011;4206;48.634;9.516;2023-08-01T13:05:13;1.13;;;0.60;;
8337;SDS011;4206;48.634;9.516;2023-08-01T13:07:40;0.90;;;0.90;;
8337;SDS011;4206;48.634;9.516;2023-08-01T13:10:07;0.90;;;0.60;;
8337;SDS011;4206;48.634;9.516;2023-08-01T13:12:34;1.50;;;0.80;;
8337;SDS011;4206;48.634;9.516;2023-08-01T13:15:01;1.83;;;0.83;;
8337;SDS011;4206;48.634;9.516;2023-08-01T13:17:42;0.80;;;0.50;;
8337;SDS011;4206;48.634;9.516;2023-08-01T13:20:09;1.30;;;0.80;;
8337;SDS011;4206;48.634;9.516;2023-08-01T13:22:36;1.57;;;0.73;;
8337;SDS011;4206;48.634;9.516;2023-08-01T13:25:03;1.30;;;0.80;;
8337;SDS011;4206;48.634;9.516;2023-08-01T13:27:33;1.13;;;0.70;;
8337;SDS011;4206;48.634;9.516;2023-08-01T13:30:01;0.97;;;0.73;;
8337;SDS011;4206;48.634;9.516;2023-08-01T13:32:29;1.97;;;0.83;;
8337;SDS011;4206;48.634;9.516;2023-08-01T13:34:56;0.70;;;0.50;;
8337;SDS011;4206;48.634;9.516;2023-08-01T13:37:23;1.10;;;0.90;;
8337;SDS011;4206;48.634;9.516;2023-08-01T13:39:50;0.77;;;0.67;;
8337;SDS011;4206;48.634;9.516;2023-08-01T13:42:16;2.30;;;0.73;;
8337;SDS011;4206;48.634;9.516;2023-08-01T13:44:43;0.90;;;0.70;;
8337;SDS011;4206;48.634;9.516;2023-08-01T13:47:10;9.20;;;1.20;;
8337;SDS011;4206;48.634;9.516;2023-08-01T13:49:37;1.47;;;0.93;;
8337;SDS011;4206;48.634;9.516;2023-08-01T13:52:04;6.83;;;0.90;;
8337;SDS011;4206;48.634;9.516;2023-08-01T13:54:31;1.40;;;0.80;;
8337;SDS011;4206;48.634;9.516;2023-08-01T13:56:59;0.67;;;0.60;;
8337;SDS011;4206;48.634;9.516;2023-08-01T13:59:26;1.30;;;1.07;;
8337;SDS011;4206;48.634;9.516;2023-08-01T14:01:53;3.90;;;1.17;;
8337;SDS011;4206;48.634;9.516;2023-08-01T14:04:20;5.80;;;1.10;;
8337;SDS011;4206;48.634;9.516;2023-08-01T14:06:47;0.90;;;0.90;;
8337;SDS011;4206;48.634;9.516;2023-08-01T14:09:15;1.80;;;1.37;;
8337;SDS011;4206;48.634;9.516;2023-08-01T14:11:42;1.50;;;0.90;;
8337;SDS011;4206;48.634;9.516;2023-08-01T14:14:09;2.63;;;0.87;;
8337;SDS011;4206;48.634;9.516;2023-08-01T14:16:36;1.73;;;1.00;;
8337;SDS011;4206;48.634;9.516;2023-08-01T14:19:03;0.70;;;0.70;;
8337;SDS011;4206;48.634;9.516;2023-08-01T14:21:30;2.07;;;1.00;;
8337;SDS011;4206;48.634;9.516;2023-08-01T14:23:57;0.90;;;0.80;;
8337;SDS011;4206;48.634;9.516;2023-08-01T14:26:24;1.53;;;0.93;;
8337;SDS011;4206;48.634;9.516;2023-08-01T14:28:51;2.53;;;0.93;;
8337;SDS011;4206;48.634;9.516;2023-08-01T14:31:18;2.30;;;1.07;;
8337;SDS011;4206;48.634;9.516;2023-08-01T14:33:45;2.47;;;0.90;;
8337;SDS011;4206;48.634;9.516;2023-08-01T14:36:12;8.23;;;0.93;;
8337;SDS011;4206;48.634;9.516;2023-08-01T14:38:39;2.93;;;0.83;;
8337;SDS011;4206;48.634;9.516;2023-08-01T14:41:06;2.93;;;1.07;;
8337;SDS011;4206;48.634;9.516;2023-08-01T14:43:47;1.77;;;0.60;;
8337;SDS011;4206;48.634;9.516;2023-08-01T14:46:14;1.20;;;0.70;;
8337;SDS011;4206;48.634;9.516;2023-08-01T14:48:41;2.80;;;1.10;;
8337;SDS011;4206;48.634;9.516;2023-08-01T14:51:08;4.43;;;0.90;;
8337;SDS011;4206;48.634;9.516;2023-08-01T14:53:35;1.53;;;1.03;;
8337;SDS011;4206;48.634;9.516;2023-08-01T14:56:02;2.30;;;0.87;;
8337;SDS011;4206;48.634;9.516;2023-08-01T14:58:31;2.40;;;0.90;;
8337;SDS011;4206;48.634;9.516;2023-08-01T15:00:58;1.40;;;1.10;;
8337;SDS011;4206;48.634;9.516;2023-08-01T15:03:25;1.73;;;1.10;;
8337;SDS011;4206;48.634;9.516;2023-08-01T15:05:52;0.60;;;0.60;;
8337;SDS011;4206;48.634;9.516;2023-08-01T15:08:19;2.17;;;0.70;;
8337;SDS011;4206;48.634;9.516;2023-08-01T15:10:46;2.10;;;1.10;;
8337;SDS011;4206;48.634;9.516;2023-08-01T15:13:13;1.37;;;0.90;;
8337;SDS011;4206;48.634;9.516;2023-08-01T15:15:40;1.07;;;0.77;;
8337;SDS011;4206;48.634;9.516;2023-08-01T15:18:07;1.33;;;0.87;;
8337;SDS011;4206;48.634;9.516;2023-08-01T15:20:34;1.43;;;0.80;;
8337;SDS011;4206;48.634;9.516;2023-08-01T15:23:04;2.00;;;0.70;;
8337;SDS011;4206;48.634;9.516;2023-08-01T15:25:31;2.20;;;0.77;;
8337;SDS011;4206;48.634;9.516;2023-08-01T15:28:00;1.47;;;0.80;;
8337;SDS011;4206;48.634;9.516;2023-08-01T15:30:27;1.63;;;0.70;;
8337;SDS011;4206;48.634;9.516;2023-08-01T15:32:54;1.00;;;0.73;;
8337;SDS011;4206;48.634;9.516;2023-08-01T15:35:25;1.17;;;0.60;;